Time;durP1;ratioP1;P1;durP2;ratioP2;P2;SDS_P1;SDS_P2;PMS_P1;PMS_P2;Temp;Humidity;BMP_temperature;BMP_pressure;BME280_temperature;BME280_humidity;BME280_pressure;Samples;Min_cycle;Max_cycle;Signal;HPM_P1;HPM_P2
2023/04/14 00:01:24;;;;;;;12.68;2.33;;;5.10;99.90;;;;;;5069635;28;20462;-74
2023/04/14 00:03:50;;;;;;;10.25;2.17;;;5.00;99.90;;;;;;5069185;28;20050;-85
2023/04/14 00:06:16;;;;;;;9.95;2.35;;;5.10;99.90;;;;;;5069479;28;20063;-87
2023/04/14 00:08:42;;;;;;;8.73;2.50;;;5.00;99.90;;;;;;5069656;28;20123;-80
2023/04/14 00:11:07;;;;;;;10.52;2.25;;;5.00;99.90;;;;;;5050857;28;20052;-74
2023/04/14 00:13:33;;;;;;;11.25;2.22;;;5.00;99.90;;;;;;5052338;28;20074;-74
2023/04/14 00:15:59;;;;;;;11.55;2.20;;;4.90;99.90;;;;;;5055301;28;20063;-73
2023/04/14 00:18:24;;;;;;;9.63;2.00;;;4.90;99.90;;;;;;5073212;28;20040;-72
2023/04/14 00:20:50;;;;;;;10.98;2.20;;;4.90;99.90;;;;;;5073046;28;20110;-75
2023/04/14 00:23:17;;;;;;;11.75;2.00;;;4.80;99.90;;;;;;5071873;28;20040;-72
2023/04/14 00:25:43;;;;;;;16.02;2.22;;;4.80;99.90;;;;;;5054402;28;20053;-73
2023/04/14 00:28:08;;;;;;;11.75;2.95;;;4.70;99.90;;;;;;5055165;28;20461;-76
2023/04/14 00:30:34;;;;;;;9.23;1.83;;;4.70;99.90;;;;;;5072875;28;20048;-74
2023/04/14 00:32:59;;;;;;;10.82;3.03;;;4.70;99.90;;;;;;5070791;28;20049;-72
2023/04/14 00:35:25;;;;;;;13.00;2.67;;;4.70;99.90;;;;;;5054805;28;20395;-73
2023/04/14 00:37:51;;;;;;;8.23;2.30;;;4.60;99.90;;;;;;5072700;28;20082;-73
2023/04/14 00:40:16;;;;;;;8.07;2.35;;;4.60;99.90;;;;;;5071451;28;20803;-79
2023/04/14 00:42:46;;;;;;;9.88;2.03;;;4.50;99.90;;;;;;5072094;28;20522;-72
2023/04/14 00:45:13;;;;;;;12.68;2.35;;;4.50;99.90;;;;;;5054261;28;20055;-73
2023/04/14 00:47:40;;;;;;;8.63;2.17;;;4.50;99.90;;;;;;5072591;28;20395;-88
2023/04/14 00:50:08;;;;;;;12.57;2.20;;;4.40;99.90;;;;;;5072543;28;20483;-73
2023/04/14 00:52:36;;;;;;;8.80;2.05;;;4.30;99.90;;;;;;5072049;28;20110;-78
2023/04/14 00:55:04;;;;;;;10.80;2.17;;;4.30;99.90;;;;;;5072455;28;20530;-73
2023/04/14 00:57:30;;;;;;;12.40;2.50;;;3.80;99.90;;;;;;5072132;28;20033;-74
2023/04/14 00:59:58;;;;;;;11.02;2.53;;;4.30;99.90;;;;;;5072131;28;20052;-74
2023/04/14 01:02:24;;;;;;;10.85;2.67;;;4.20;99.90;;;;;;5072249;28;20395;-75
2023/04/14 01:04:50;;;;;;;14.75;2.80;;;4.20;99.90;;;;;;5054176;28;20052;-74
2023/04/14 01:07:18;;;;;;;11.43;2.58;;;4.20;99.90;;;;;;5072021;28;20045;-74
2023/04/14 01:09:44;;;;;;;12.93;2.60;;;4.10;99.90;;;;;;5054138;28;20394;-81
2023/04/14 01:12:28;;;;;;;11.93;2.45;;;4.10;99.90;;;;;;5071528;28;20048;-79
2023/04/14 01:15:16;;;;;;;8.23;2.40;;;4.10;99.90;;;;;;5053885;28;20503;-87
2023/04/14 01:17:53;;;;;;;7.30;2.17;;;4.10;99.90;;;;;;5071665;28;20060;-88
2023/04/14 01:20:29;;;;;;;10.43;2.85;;;4.00;99.90;;;;;;5071292;28;20051;-74
2023/04/14 01:23:06;;;;;;;10.68;2.38;;;4.00;99.90;;;;;;5071840;28;20048;-85
2023/04/14 01:25:44;;;;;;;8.68;2.00;;;4.00;99.90;;;;;;5053613;28;20048;-75
2023/04/14 01:28:18;;;;;;;8.57;2.40;;;4.00;99.90;;;;;;5071510;28;20508;-74
2023/04/14 01:30:58;;;;;;;9.13;2.72;;;4.10;99.90;;;;;;5071607;28;20052;-80
2023/04/14 01:33:25;;;;;;;8.77;2.63;;;4.10;99.90;;;;;;5071901;28;20423;-81
2023/04/14 01:35:58;;;;;;;9.52;2.70;;;4.00;99.90;;;;;;5072013;28;20786;-84
2023/04/14 01:38:31;;;;;;;10.98;2.55;;;4.00;99.90;;;;;;5054025;28;20049;-82
2023/04/14 01:41:04;;;;;;;11.25;2.90;;;4.10;99.90;;;;;;5071682;28;20079;-76
2023/04/14 01:43:32;;;;;;;11.52;2.40;;;4.10;99.90;;;;;;5071132;28;20044;-84
2023/04/14 01:46:05;;;;;;;10.70;1.85;;;4.00;99.90;;;;;;5071389;28;20101;-82
2023/04/14 01:48:32;;;;;;;12.40;2.80;;;4.00;99.90;;;;;;5071476;28;20053;-81
2023/04/14 01:50:59;;;;;;;9.95;2.60;;;4.00;99.90;;;;;;5071181;28;20082;-84
2023/04/14 01:53:27;;;;;;;5.00;1.92;;;4.00;99.90;;;;;;5071179;28;20052;-74
2023/04/14 01:55:54;;;;;;;8.55;1.98;;;4.00;99.90;;;;;;5070952;28;20519;-74
2023/04/14 01:58:21;;;;;;;8.02;2.55;;;4.00;99.90;;;;;;5071043;28;20045;-85
2023/04/14 02:00:49;;;;;;;10.90;2.58;;;3.90;99.90;;;;;;5070488;28;20037;-75
2023/04/14 02:03:18;;;;;;;13.95;2.33;;;3.90;99.90;;;;;;5070686;28;20052;-81
2023/04/14 02:05:47;;;;;;;10.43;2.42;;;3.90;99.90;;;;;;5071319;28;20047;-77
2023/04/14 02:08:15;;;;;;;6.85;2.35;;;4.00;99.90;;;;;;5053139;28;20511;-82
2023/04/14 02:10:45;;;;;;;10.05;1.77;;;3.80;99.90;;;;;;5052157;28;20435;-77
2023/04/14 02:13:12;;;;;;;6.22;2.30;;;3.80;99.90;;;;;;5059900;28;20049;-78
2023/04/14 02:15:38;;;;;;;5.97;2.03;;;3.80;99.90;;;;;;5070417;28;20028;-72
2023/04/14 02:18:05;;;;;;;9.20;2.70;;;3.70;99.90;;;;;;5070656;28;20033;-80
2023/04/14 02:20:32;;;;;;;6.85;1.95;;;3.80;99.90;;;;;;5070693;28;20044;-76
2023/04/14 02:22:59;;;;;;;6.60;1.88;;;3.80;99.90;;;;;;5070633;28;20044;-77
2023/04/14 02:25:31;;;;;;;8.20;2.30;;;4.40;99.90;;;;;;5051981;28;20052;-78
2023/04/14 02:28:11;;;;;;;13.70;2.60;;;3.70;99.90;;;;;;5070180;28;20127;-78
2023/04/14 02:30:42;;;;;;;9.02;2.45;;;3.70;99.90;;;;;;5052251;28;20499;-74
2023/04/14 02:33:10;;;;;;;12.38;2.38;;;3.80;99.90;;;;;;5070413;28;20036;-75
2023/04/14 02:35:43;;;;;;;12.75;2.55;;;3.80;99.90;;;;;;5070208;28;20048;-75
2023/04/14 02:38:22;;;;;;;10.52;2.08;;;3.80;99.90;;;;;;5051605;28;20048;-75
2023/04/14 02:40:48;;;;;;;7.20;1.98;;;3.80;99.90;;;;;;5070539;28;20052;-81
2023/04/14 02:43:24;;;;;;;11.18;2.22;;;3.80;99.90;;;;;;5069811;28;20380;-86
2023/04/14 02:45:53;;;;;;;8.85;2.10;;;3.80;99.90;;;;;;5051833;28;20056;-74
2023/04/14 02:48:22;;;;;;;6.15;2.08;;;3.80;99.90;;;;;;5070293;28;20115;-76
2023/04/14 02:50:51;;;;;;;10.38;2.38;;;4.30;99.90;;;;;;5051910;28;20137;-75
2023/04/14 02:53:20;;;;;;;10.45;2.00;;;3.90;99.90;;;;;;5051618;28;20048;-77
2023/04/14 02:55:48;;;;;;;7.97;2.05;;;3.90;99.90;;;;;;5070224;28;20109;-78
2023/04/14 02:58:15;;;;;;;10.55;2.10;;;3.90;99.90;;;;;;5069891;28;20059;-73
2023/04/14 03:00:43;;;;;;;6.13;1.80;;;3.90;99.90;;;;;;5069773;28;20088;-78
2023/04/14 03:03:10;;;;;;;10.70;2.20;;;3.90;99.90;;;;;;5069928;28;20044;-76
2023/04/14 03:05:38;;;;;;;5.65;1.73;;;3.90;99.90;;;;;;5070131;28;20151;-74
2023/04/14 03:08:04;;;;;;;8.23;1.92;;;3.90;99.90;;;;;;5070204;28;20123;-74
2023/04/14 03:10:32;;;;;;;8.57;2.33;;;3.90;99.90;;;;;;5069351;28;20052;-73
2023/04/14 03:13:00;;;;;;;9.20;1.98;;;3.90;99.90;;;;;;5069353;28;20041;-72
2023/04/14 03:15:26;;;;;;;6.05;1.92;;;3.80;99.90;;;;;;5069611;28;20044;-74
2023/04/14 03:17:56;;;;;;;7.60;1.80;;;3.90;99.90;;;;;;5052164;28;20098;-73
2023/04/14 03:20:22;;;;;;;10.35;2.00;;;3.80;99.90;;;;;;5070260;28;20048;-73
2023/04/14 03:22:56;;;;;;;12.18;2.65;;;3.80;99.90;;;;;;5070121;28;20047;-74
2023/04/14 03:25:26;;;;;;;8.45;2.05;;;3.80;99.90;;;;;;5051831;28;20099;-73
2023/04/14 03:27:54;;;;;;;14.48;2.17;;;3.80;99.90;;;;;;5069448;28;20044;-74
2023/04/14 03:30:24;;;;;;;9.15;2.30;;;3.80;99.90;;;;;;5069413;28;20052;-74
2023/04/14 03:32:51;;;;;;;11.07;2.15;;;3.80;99.90;;;;;;5069966;28;20117;-86
2023/04/14 03:35:20;;;;;;;8.10;2.42;;;3.80;99.90;;;;;;5051667;28;20132;-85
2023/04/14 03:37:49;;;;;;;9.48;2.38;;;3.70;99.90;;;;;;5049981;28;20434;-77
2023/04/14 03:40:16;;;;;;;7.00;2.17;;;3.70;99.90;;;;;;5051403;28;20045;-78
2023/04/14 03:42:44;;;;;;;8.43;1.98;;;3.70;99.90;;;;;;5069328;28;20056;-82
2023/04/14 03:45:10;;;;;;;12.32;2.40;;;3.80;99.90;;;;;;5069151;28;20047;-84
2023/04/14 03:47:36;;;;;;;7.95;1.92;;;3.60;99.90;;;;;;5070769;28;20493;-75
2023/04/14 03:50:04;;;;;;;8.65;2.05;;;3.60;99.90;;;;;;5073884;28;20123;-77
2023/04/14 03:52:34;;;;;;;12.57;2.50;;;3.60;99.90;;;;;;5073631;28;20094;-76
2023/04/14 03:55:05;;;;;;;14.45;2.72;;;3.60;99.90;;;;;;5073891;28;20055;-87
2023/04/14 03:57:32;;;;;;;6.70;2.08;;;3.60;99.90;;;;;;5073550;28;20490;-73
2023/04/14 04:00:01;;;;;;;15.73;2.20;;;3.60;99.90;;;;;;5072864;28;20052;-73
2023/04/14 04:02:28;;;;;;;8.55;2.15;;;3.60;99.90;;;;;;5072798;28;20043;-79
2023/04/14 04:04:55;;;;;;;11.07;2.28;;;3.60;99.90;;;;;;5055571;28;20056;-74
2023/04/14 04:07:21;;;;;;;7.97;1.92;;;3.60;99.90;;;;;;5073472;28;20047;-74
2023/04/14 04:09:49;;;;;;;8.93;2.40;;;3.60;99.90;;;;;;5073305;28;20086;-74
2023/04/14 04:12:18;;;;;;;12.98;2.08;;;3.50;99.90;;;;;;5072153;28;20056;-82
2023/04/14 04:14:44;;;;;;;5.63;2.20;;;3.50;99.90;;;;;;5072682;28;20048;-76
2023/04/14 04:17:13;;;;;;;7.55;2.60;;;3.50;99.90;;;;;;5073159;28;20040;-74
2023/04/14 04:19:41;;;;;;;7.35;2.30;;;3.50;99.90;;;;;;5073469;28;20048;-88
2023/04/14 04:22:10;;;;;;;12.65;2.67;;;3.50;99.90;;;;;;5073174;28;20048;-79
2023/04/14 04:24:40;;;;;;;11.02;2.28;;;3.60;99.90;;;;;;5054550;28;20067;-76
2023/04/14 04:27:06;;;;;;;7.47;2.50;;;3.50;99.90;;;;;;5072945;28;20036;-77
2023/04/14 04:29:32;;;;;;;8.70;2.38;;;3.50;99.90;;;;;;5072804;28;20055;-72
2023/04/14 04:31:59;;;;;;;7.82;2.60;;;3.50;99.90;;;;;;5072516;28;20040;-79
2023/04/14 04:34:25;;;;;;;11.02;2.60;;;3.80;99.90;;;;;;5054908;28;20053;-83
2023/04/14 04:36:52;;;;;;;10.15;2.25;;;3.50;99.90;;;;;;5072524;28;20043;-85
2023/04/14 04:39:18;;;;;;;10.13;2.30;;;3.50;99.90;;;;;;5054307;28;20056;-73
2023/04/14 04:41:44;;;;;;;12.20;2.78;;;3.50;99.90;;;;;;5054192;28;20048;-75
2023/04/14 04:44:10;;;;;;;10.23;2.95;;;3.50;99.90;;;;;;5072154;28;20542;-74
2023/04/14 04:46:45;;;;;;;11.68;2.50;;;3.50;99.90;;;;;;5072600;28;20123;-85
2023/04/14 04:49:11;;;;;;;8.55;2.50;;;3.50;99.90;;;;;;5054526;28;20044;-74
2023/04/14 04:51:37;;;;;;;10.05;2.63;;;3.80;99.90;;;;;;5072983;28;20121;-80
2023/04/14 04:54:03;;;;;;;10.90;2.85;;;3.50;99.90;;;;;;5054487;28;20044;-77
2023/04/14 04:56:28;;;;;;;16.48;3.10;;;3.50;99.90;;;;;;5054231;28;20048;-73
2023/04/14 04:58:54;;;;;;;7.30;2.45;;;3.40;99.90;;;;;;5071435;28;20049;-84
2023/04/14 05:01:19;;;;;;;7.13;2.85;;;3.80;99.90;;;;;;5072002;28;20051;-75
2023/04/14 05:03:45;;;;;;;9.77;2.65;;;3.60;99.90;;;;;;5072147;28;20048;-87
2023/04/14 05:06:12;;;;;;;7.32;2.38;;;3.40;99.90;;;;;;5072182;28;20055;-86
2023/04/14 05:08:38;;;;;;;11.60;2.78;;;3.40;99.90;;;;;;5072285;28;20059;-83
2023/04/14 05:11:04;;;;;;;11.65;2.67;;;3.40;99.90;;;;;;5071246;28;20052;-82
2023/04/14 05:13:31;;;;;;;12.05;2.63;;;3.40;99.90;;;;;;5071501;28;20152;-86
2023/04/14 05:16:08;;;;;;;6.90;2.60;;;3.40;99.90;;;;;;5072274;28;20052;-86
2023/04/14 05:18:35;;;;;;;8.20;2.83;;;3.40;99.90;;;;;;5072088;28;20055;-83
2023/04/14 05:21:05;;;;;;;9.88;2.72;;;3.40;99.90;;;;;;5071806;28;20483;-84
2023/04/14 05:23:35;;;;;;;8.50;3.28;;;3.40;99.90;;;;;;5072106;28;20098;-77
2023/04/14 05:26:02;;;;;;;9.75;2.85;;;3.40;99.90;;;;;;5072291;28;20052;-75
2023/04/14 05:28:28;;;;;;;11.23;2.92;;;3.40;99.90;;;;;;5054649;28;20502;-79
2023/04/14 05:30:54;;;;;;;8.38;3.13;;;3.40;99.90;;;;;;5072003;28;20040;-75
2023/04/14 05:33:19;;;;;;;10.00;3.17;;;3.40;99.90;;;;;;5071300;28;20052;-79
2023/04/14 05:35:46;;;;;;;12.73;3.50;;;3.40;99.90;;;;;;5071579;28;20584;-74
2023/04/14 05:38:14;;;;;;;11.70;3.40;;;3.50;99.90;;;;;;5071601;28;20051;-74
2023/04/14 05:40:40;;;;;;;10.02;3.15;;;3.50;99.90;;;;;;5071332;28;20145;-79
2023/04/14 05:43:06;;;;;;;8.00;3.00;;;3.50;99.90;;;;;;5069959;28;20072;-75
2023/04/14 05:45:32;;;;;;;10.18;3.05;;;3.50;99.90;;;;;;5053452;28;20403;-85
2023/04/14 05:47:57;;;;;;;9.27;3.80;;;3.50;99.90;;;;;;5053233;28;20044;-73
2023/04/14 05:50:23;;;;;;;8.77;3.70;;;3.50;99.90;;;;;;5071241;28;20048;-72
2023/04/14 05:52:50;;;;;;;14.10;3.53;;;3.50;99.90;;;;;;5071351;28;20123;-73
2023/04/14 05:55:15;;;;;;;12.05;3.03;;;3.50;99.90;;;;;;5052841;28;20131;-74
2023/04/14 05:57:41;;;;;;;8.07;2.63;;;3.50;99.90;;;;;;5053203;28;20127;-73
2023/04/14 06:00:08;;;;;;;9.63;2.90;;;3.60;99.90;;;;;;5070992;28;20105;-75
2023/04/14 06:02:34;;;;;;;10.18;2.97;;;3.60;99.90;;;;;;5053120;28;20056;-82
2023/04/14 06:05:00;;;;;;;10.60;2.75;;;3.60;99.90;;;;;;5071140;28;20080;-83
2023/04/14 06:07:26;;;;;;;12.02;2.47;;;3.70;99.90;;;;;;5070991;28;20470;-79
2023/04/14 06:09:52;;;;;;;16.17;3.03;;;3.70;99.90;;;;;;5070576;28;20127;-77
2023/04/14 06:12:18;;;;;;;9.88;2.75;;;3.80;99.90;;;;;;5051830;28;20136;-74
2023/04/14 06:14:44;;;;;;;6.03;2.47;;;3.80;99.90;;;;;;5070854;28;20071;-74
2023/04/14 06:17:09;;;;;;;13.30;2.83;;;3.90;99.90;;;;;;5053488;28;20041;-81
2023/04/14 06:19:35;;;;;;;11.57;2.60;;;4.00;99.90;;;;;;5070840;28;20040;-73
2023/04/14 06:22:00;;;;;;;12.80;2.80;;;4.10;99.90;;;;;;5071052;28;20123;-75
2023/04/14 06:24:26;;;;;;;11.15;2.70;;;4.20;99.90;;;;;;5053236;28;20052;-78
2023/04/14 06:26:52;;;;;;;12.75;3.00;;;4.30;99.90;;;;;;5070951;28;20131;-85
2023/04/14 10:34:14;;;;;;;8.05;1.60;;;16.40;99.90;;;;;;5148940;27;20462;-75
2023/04/14 10:36:41;;;;;;;11.13;1.65;;;16.30;99.90;;;;;;5148912;27;20464;-75
2023/04/14 10:39:09;;;;;;;8.73;2.15;;;16.10;99.90;;;;;;5148944;27;20445;-74
2023/04/14 10:41:45;;;;;;;5.85;1.30;;;16.00;99.90;;;;;;5149039;27;20049;-74
2023/04/14 10:44:30;;;;;;;9.73;2.10;;;16.30;99.90;;;;;;5146487;27;20498;-73
2023/04/14 10:46:57;;;;;;;10.60;1.95;;;16.40;99.90;;;;;;5147419;27;20034;-78
2023/04/14 10:49:31;;;;;;;9.60;1.92;;;16.50;99.90;;;;;;5148176;27;20035;-76
2023/04/14 10:52:02;;;;;;;11.07;2.05;;;16.70;99.90;;;;;;5148567;27;20542;-76
2023/04/14 10:54:47;;;;;;;9.68;1.60;;;16.90;99.90;;;;;;5148252;27;20047;-74
2023/04/14 10:57:17;;;;;;;8.43;1.55;;;17.10;99.50;;;;;;5148213;27;20502;-73
2023/04/14 10:59:46;;;;;;;6.40;1.70;;;17.30;99.90;;;;;;5147541;27;20051;-73
2023/04/14 11:02:29;;;;;;;8.43;1.85;;;17.20;99.90;;;;;;5148093;27;20050;-73
2023/04/14 11:05:12;;;;;;;10.65;1.60;;;16.70;99.40;;;;;;5148114;27;20414;-74
2023/04/14 11:07:50;;;;;;;9.90;1.85;;;16.70;99.20;;;;;;5147744;27;20066;-73
2023/04/14 11:10:16;;;;;;;9.45;1.90;;;16.90;99.90;;;;;;5144643;27;20050;-72
2023/04/14 11:12:43;;;;;;;11.82;1.67;;;16.80;99.90;;;;;;5147966;27;20049;-75
2023/04/14 11:15:09;;;;;;;10.65;1.73;;;16.50;99.90;;;;;;5146611;27;20463;-75
2023/04/14 11:17:42;;;;;;;11.18;2.75;;;16.60;99.90;;;;;;5147871;27;20058;-75
2023/04/14 11:20:21;;;;;;;10.35;2.25;;;16.40;99.40;;;;;;5147562;27;20516;-75
2023/04/14 11:22:51;;;;;;;12.55;1.95;;;16.70;97.20;;;;;;5147333;27;20522;-75
2023/04/14 11:25:19;;;;;;;14.70;1.80;;;16.40;99.90;;;;;;5146452;27;20086;-77
2023/04/14 11:27:47;;;;;;;9.15;2.00;;;16.30;99.90;;;;;;5147577;27;20047;-77
2023/04/14 11:30:17;;;;;;;9.45;1.67;;;16.30;99.90;;;;;;5147615;27;20039;-74
2023/04/14 11:32:46;;;;;;;10.27;1.67;;;16.20;99.90;;;;;;5147468;27;20051;-75
2023/04/14 11:35:13;;;;;;;8.38;1.83;;;16.10;99.70;;;;;;5131886;27;20047;-75
2023/04/14 11:37:38;;;;;;;10.50;2.10;;;16.40;99.90;;;;;;5131959;27;20043;-75
2023/04/14 11:40:05;;;;;;;8.98;1.63;;;16.60;99.90;;;;;;5132944;27;20436;-74
2023/04/14 11:42:32;;;;;;;9.15;1.73;;;16.50;99.90;;;;;;5133476;27;20254;-74
2023/04/14 11:44:58;;;;;;;7.60;1.75;;;16.40;99.70;;;;;;5133388;27;20072;-73
2023/04/14 11:47:24;;;;;;;9.80;1.80;;;16.50;99.90;;;;;;5132184;27;20557;-74
2023/04/14 11:49:50;;;;;;;7.30;1.60;;;16.50;99.90;;;;;;5133282;27;20051;-76
2023/04/14 11:52:19;;;;;;;7.50;1.58;;;16.50;99.20;;;;;;5133385;27;20424;-76
2023/04/14 11:54:45;;;;;;;7.45;1.60;;;16.50;99.20;;;;;;5133361;27;20035;-75
2023/04/14 11:57:16;;;;;;;10.55;1.70;;;16.40;99.70;;;;;;5132305;27;20487;-75
2023/04/14 11:59:43;;;;;;;7.20;1.30;;;16.20;98.60;;;;;;5133343;27;20047;-77
2023/04/14 12:02:20;;;;;;;8.88;1.98;;;16.30;99.10;;;;;;5133081;27;20104;-75
2023/04/14 12:04:47;;;;;;;10.80;1.60;;;16.50;97.80;;;;;;5132850;27;20051;-77
2023/04/14 12:07:15;;;;;;;5.10;1.27;;;16.60;99.00;;;;;;5133318;27;20403;-76
2023/04/14 12:09:43;;;;;;;9.25;1.52;;;16.50;98.60;;;;;;5131573;27;20070;-76
2023/04/14 12:12:13;;;;;;;9.38;2.40;;;16.50;98.80;;;;;;5133088;27;20038;-77
2023/04/14 12:14:41;;;;;;;9.90;2.03;;;16.30;97.70;;;;;;5132690;27;20078;-77
2023/04/14 12:17:08;;;;;;;11.20;1.45;;;16.20;98.40;;;;;;5112524;28;20047;-76
2023/04/14 12:19:37;;;;;;;6.88;1.42;;;16.10;98.00;;;;;;5112294;28;20031;-78
2023/04/14 12:22:04;;;;;;;6.93;1.45;;;16.10;97.60;;;;;;5110798;28;20079;-76
2023/04/14 12:24:37;;;;;;;6.03;1.38;;;16.30;97.90;;;;;;5110550;28;20058;-78
2023/04/14 12:27:05;;;;;;;8.98;1.33;;;16.40;97.10;;;;;;5112211;28;20181;-76
2023/04/14 12:29:33;;;;;;;7.07;1.48;;;16.30;97.50;;;;;;5127842;27;20083;-75
2023/04/14 12:31:59;;;;;;;9.02;1.88;;;16.30;97.40;;;;;;5093395;28;20433;-74
2023/04/14 12:34:26;;;;;;;8.88;1.80;;;16.20;97.20;;;;;;5129116;27;20157;-74
2023/04/14 12:36:52;;;;;;;7.28;1.63;;;16.10;97.70;;;;;;5132734;27;20587;-74
2023/04/14 12:39:20;;;;;;;5.38;1.42;;;15.90;97.40;;;;;;5132374;27;20160;-75
2023/04/14 12:41:47;;;;;;;5.68;1.33;;;16.10;97.00;;;;;;5132816;27;20035;-77
2023/04/14 12:44:17;;;;;;;8.32;1.40;;;16.10;96.90;;;;;;5132725;27;20437;-74
2023/04/14 12:46:51;;;;;;;7.07;2.05;;;16.20;96.60;;;;;;5131528;27;20380;-74
2023/04/14 12:49:37;;;;;;;7.68;1.75;;;16.00;96.30;;;;;;5132818;27;20049;-76
2023/04/14 12:52:07;;;;;;;7.55;1.42;;;16.00;96.40;;;;;;5130918;27;20054;-76
2023/04/14 12:54:52;;;;;;;5.55;1.25;;;16.30;96.90;;;;;;5113721;27;20054;-75
2023/04/14 12:57:20;;;;;;;6.10;1.70;;;16.30;95.40;;;;;;5130421;27;20047;-76
2023/04/14 12:59:45;;;;;;;4.20;1.20;;;16.50;96.70;;;;;;5130630;27;20046;-76
2023/04/14 13:02:11;;;;;;;8.55;1.42;;;16.30;97.00;;;;;;5130448;27;20047;-76
2023/04/14 13:04:37;;;;;;;9.07;1.33;;;16.20;96.30;;;;;;5131992;27;20035;-76
2023/04/14 13:07:03;;;;;;;6.05;1.42;;;16.10;95.90;;;;;;5130267;27;20051;-75
2023/04/14 13:09:30;;;;;;;6.57;1.30;;;16.00;96.50;;;;;;5130075;27;20043;-77
2023/04/14 13:11:56;;;;;;;8.80;1.13;;;15.80;95.30;;;;;;5131515;27;20554;-76
2023/04/14 13:14:22;;;;;;;6.72;1.38;;;15.90;96.20;;;;;;5131731;27;20047;-75
2023/04/14 13:16:48;;;;;;;6.88;1.13;;;15.90;96.00;;;;;;5130299;27;20126;-77
2023/04/14 13:19:14;;;;;;;5.95;1.30;;;16.30;95.80;;;;;;5131697;27;20125;-75
2023/04/14 13:21:40;;;;;;;6.40;1.35;;;16.50;95.60;;;;;;5129891;27;20042;-76
2023/04/14 13:24:06;;;;;;;7.03;1.20;;;16.70;95.50;;;;;;5112297;27;20059;-78
2023/04/14 13:26:33;;;;;;;4.82;1.00;;;16.60;95.50;;;;;;5130057;27;20380;-76
2023/04/14 13:28:59;;;;;;;10.23;1.15;;;16.60;94.00;;;;;;5131074;27;20039;-77
2023/04/14 13:31:25;;;;;;;5.70;1.42;;;16.30;95.10;;;;;;5131257;27;20051;-75
2023/04/14 13:33:51;;;;;;;7.50;1.25;;;16.70;95.20;;;;;;5129426;27;20083;-77
2023/04/14 13:36:16;;;;;;;6.28;1.15;;;16.90;95.20;;;;;;5131377;27;20058;-76
2023/04/14 13:38:42;;;;;;;5.75;1.42;;;17.20;95.40;;;;;;5131165;27;20092;-77
2023/04/14 13:41:08;;;;;;;6.88;1.50;;;17.30;95.20;;;;;;5130911;27;20057;-75
2023/04/14 13:43:35;;;;;;;8.23;1.67;;;17.60;95.00;;;;;;5130950;27;20087;-77
2023/04/14 13:46:00;;;;;;;6.28;1.13;;;17.80;94.50;;;;;;5131397;27;20050;-75
2023/04/14 13:48:26;;;;;;;9.98;1.58;;;17.80;94.40;;;;;;5131213;27;20062;-77
2023/04/14 13:50:53;;;;;;;8.98;1.50;;;17.50;93.10;;;;;;5130979;27;20098;-80
2023/04/14 13:53:19;;;;;;;6.22;1.23;;;17.70;93.30;;;;;;5130983;27;20095;-77
2023/04/14 13:55:45;;;;;;;5.95;1.33;;;18.00;93.90;;;;;;5129474;27;20437;-78
2023/04/14 13:58:10;;;;;;;7.10;1.20;;;18.20;93.50;;;;;;5130475;27;20043;-78
2023/04/14 14:00:36;;;;;;;6.28;1.10;;;18.50;93.60;;;;;;5130783;27;20084;-80
2023/04/14 14:03:02;;;;;;;6.63;1.88;;;18.60;93.80;;;;;;5130846;27;20043;-78
2023/04/14 14:05:27;;;;;;;8.68;1.30;;;18.80;93.20;;;;;;5130891;27;20132;-79
2023/04/14 14:07:55;;;;;;;9.20;1.20;;;18.90;92.80;;;;;;5131149;27;20039;-79
2023/04/14 14:10:21;;;;;;;6.38;1.20;;;18.90;91.30;;;;;;5130794;27;20074;-78
2023/04/14 14:12:46;;;;;;;6.28;1.27;;;18.80;91.80;;;;;;5130802;27;20124;-79
2023/04/14 14:15:12;;;;;;;6.03;1.65;;;18.70;91.70;;;;;;5130663;27;20501;-78
2023/04/14 14:17:38;;;;;;;5.43;1.20;;;19.10;90.50;;;;;;5130955;27;20043;-82
2023/04/14 14:20:04;;;;;;;5.25;1.38;;;19.10;91.40;;;;;;5130808;27;20071;-78
2023/04/14 14:22:30;;;;;;;8.40;2.00;;;19.10;91.30;;;;;;5130548;27;20501;-77
2023/04/14 14:24:56;;;;;;;5.60;1.20;;;19.10;90.80;;;;;;5130359;27;20043;-78
2023/04/14 14:27:21;;;;;;;10.13;2.42;;;18.60;90.10;;;;;;5130560;27;20073;-78
2023/04/14 14:29:47;;;;;;;8.82;3.10;;;18.40;89.70;;;;;;5130448;27;20614;-77
2023/04/14 14:32:14;;;;;;;10.00;3.15;;;18.20;90.00;;;;;;5130469;28;20051;-77
2023/04/14 14:34:40;;;;;;;5.20;1.52;;;18.10;89.80;;;;;;5130134;27;20044;-79
2023/04/14 14:37:06;;;;;;;5.47;1.50;;;18.20;89.20;;;;;;5130415;27;20108;-77
2023/04/14 14:39:32;;;;;;;6.53;1.60;;;18.10;89.60;;;;;;5130192;28;20155;-77
2023/04/14 14:41:58;;;;;;;5.78;1.25;;;18.10;89.70;;;;;;5130380;28;20433;-77
2023/04/14 14:44:23;;;;;;;6.97;1.50;;;18.00;89.40;;;;;;5130172;28;20062;-76
2023/04/14 14:46:51;;;;;;;6.65;1.50;;;17.80;89.20;;;;;;5130629;28;20035;-76
2023/04/14 14:49:18;;;;;;;5.60;1.40;;;18.00;90.00;;;;;;5129350;28;20059;-77
2023/04/14 14:51:43;;;;;;;5.75;1.33;;;18.00;89.90;;;;;;5130844;27;20092;-75
2023/04/14 14:54:09;;;;;;;5.57;1.52;;;18.20;90.00;;;;;;5130253;27;20039;-75
2023/04/14 14:56:35;;;;;;;7.65;1.73;;;18.60;90.20;;;;;;5128809;28;20112;-77
2023/04/14 14:59:01;;;;;;;7.78;1.30;;;18.90;90.20;;;;;;5130224;27;20054;-74
2023/04/14 15:01:27;;;;;;;7.50;2.13;;;19.00;89.20;;;;;;5129163;28;20039;-76
2023/04/14 15:03:53;;;;;;;5.38;1.50;;;19.20;89.70;;;;;;5112083;28;20623;-76
2023/04/14 15:06:20;;;;;;;6.53;1.30;;;19.20;88.60;;;;;;5128931;28;20047;-77
2023/04/14 15:08:46;;;;;;;8.32;1.65;;;19.50;89.50;;;;;;5131203;27;20089;-77
2023/04/14 15:11:12;;;;;;;7.40;1.30;;;19.80;88.30;;;;;;5132480;27;20035;-75
2023/04/14 15:13:38;;;;;;;6.85;1.67;;;20.00;88.80;;;;;;5133978;27;20039;-75
2023/04/14 15:16:03;;;;;;;9.10;1.75;;;20.10;88.30;;;;;;5133865;27;20047;-76
2023/04/14 15:18:29;;;;;;;7.35;1.35;;;20.00;88.10;;;;;;5133993;27;20043;-76
2023/04/14 15:20:55;;;;;;;8.27;1.50;;;20.00;86.90;;;;;;5133699;27;20733;-75
2023/04/14 15:23:21;;;;;;;7.95;1.80;;;20.10;87.30;;;;;;5133655;27;20047;-76
2023/04/14 15:25:47;;;;;;;5.88;1.83;;;20.30;87.80;;;;;;5133782;27;20085;-75
2023/04/14 15:28:13;;;;;;;4.45;1.15;;;20.40;86.00;;;;;;5133777;27;20043;-76
2023/04/14 15:30:39;;;;;;;5.68;1.60;;;20.40;87.00;;;;;;5133530;27;20049;-75
2023/04/14 15:33:05;;;;;;;6.10;1.55;;;20.60;87.30;;;;;;5133407;27;21133;-76
2023/04/14 15:35:38;;;;;;;8.15;1.83;;;20.80;85.80;;;;;;5133810;27;20063;-77
2023/04/14 15:38:04;;;;;;;5.05;1.63;;;20.80;83.50;;;;;;5133585;27;20047;-74
2023/04/14 15:40:30;;;;;;;8.55;1.83;;;20.90;85.00;;;;;;5133039;27;20054;-74
2023/04/14 15:42:56;;;;;;;6.75;1.67;;;20.80;85.30;;;;;;5114514;27;20062;-76
2023/04/14 15:45:22;;;;;;;5.55;1.50;;;20.80;84.00;;;;;;5133241;27;20403;-75
2023/04/14 15:47:48;;;;;;;4.65;1.30;;;20.80;83.50;;;;;;5131653;27;20046;-75
2023/04/14 15:50:14;;;;;;;6.13;1.40;;;20.70;83.50;;;;;;5132877;27;20372;-75
2023/04/14 15:52:40;;;;;;;7.80;1.70;;;20.50;83.40;;;;;;5133538;27;20175;-74
2023/04/14 15:55:06;;;;;;;6.75;1.83;;;20.30;82.50;;;;;;5162193;27;20111;-77
2023/04/14 15:57:32;;;;;;;6.90;1.77;;;20.30;82.20;;;;;;5111444;28;20063;-75
2023/04/14 15:59:58;;;;;;;6.25;2.13;;;20.20;82.40;;;;;;5118150;27;20035;-73
2023/04/14 16:02:27;;;;;;;5.70;1.80;;;19.80;82.30;;;;;;5133668;27;20038;-77
2023/04/14 16:04:52;;;;;;;6.65;1.85;;;19.60;82.50;;;;;;5115261;27;20675;-75
2023/04/14 16:07:18;;;;;;;5.85;1.70;;;19.30;83.30;;;;;;5133411;27;20110;-74
2023/04/14 16:09:44;;;;;;;7.72;1.60;;;19.00;84.20;;;;;;5133325;27;20481;-75
2023/04/14 16:12:10;;;;;;;6.88;1.80;;;18.80;83.90;;;;;;5133881;27;20129;-75
2023/04/14 16:14:36;;;;;;;7.68;1.80;;;18.80;83.50;;;;;;5133528;27;20456;-75
2023/04/14 16:17:02;;;;;;;9.90;2.42;;;18.50;84.00;;;;;;5133488;27;20062;-76
2023/04/14 16:19:28;;;;;;;14.32;2.72;;;18.40;83.90;;;;;;5148715;27;20047;-79
2023/04/14 16:21:56;;;;;;;5.70;1.45;;;18.30;84.00;;;;;;5132986;27;20039;-78
2023/04/14 16:24:22;;;;;;;6.38;1.60;;;18.00;84.20;;;;;;5132107;27;20055;-74
2023/04/14 16:26:47;;;;;;;7.05;1.77;;;17.80;84.50;;;;;;5133123;27;20062;-77
2023/04/14 16:29:13;;;;;;;9.68;2.45;;;17.60;84.60;;;;;;5133025;27;20654;-75
2023/04/14 16:31:39;;;;;;;8.82;1.98;;;17.50;84.70;;;;;;5131019;27;20091;-75
2023/04/14 16:34:04;;;;;;;7.85;1.98;;;17.20;84.80;;;;;;5132951;27;20058;-76
2023/04/14 16:36:30;;;;;;;12.52;2.00;;;17.20;85.00;;;;;;5132826;27;20445;-74
2023/04/14 16:38:56;;;;;;;7.53;2.17;;;17.10;85.20;;;;;;5131650;27;20067;-74
2023/04/14 16:41:21;;;;;;;8.13;1.77;;;17.20;85.40;;;;;;5132925;27;20053;-73
2023/04/14 16:43:47;;;;;;;7.20;2.15;;;17.50;86.30;;;;;;5132774;27;20090;-77
2023/04/14 16:46:13;;;;;;;9.30;2.65;;;17.90;86.30;;;;;;5131599;27;20187;-76
2023/04/14 16:48:39;;;;;;;11.82;2.03;;;18.10;86.50;;;;;;5131362;27;20047;-76
2023/04/14 16:51:07;;;;;;;5.88;1.85;;;18.20;86.00;;;;;;5133031;27;20042;-76
2023/04/14 16:53:33;;;;;;;5.85;1.95;;;18.00;85.30;;;;;;5131955;27;20460;-75
2023/04/14 16:56:10;;;;;;;11.63;2.17;;;17.80;84.90;;;;;;5132421;27;20126;-73